Time;durP1;ratioP1;P1;durP2;ratioP2;P2;SDS_P1;SDS_P2;PMS_P1;PMS_P2;Temp;Humidity;BMP_temperature;BMP_pressure;BME280_temperature;BME280_humidity;BME280_pressure;Samples;Min_cycle;Max_cycle;Signal;HPM_P1;HPM_P2
2022/09/27 00:01:28;;;;;;;7.93;2.85;;;;;;;9.32;100.00;99660.25;5088942;28;20112;-56
2022/09/27 00:03:57;;;;;;;8.65;2.80;;;;;;;9.35;100.00;99650.09;5080097;28;20032;-56
2022/09/27 00:06:25;;;;;;;8.20;2.55;;;;;;;9.32;100.00;99653.09;5081431;28;20028;-56
2022/09/27 00:08:51;;;;;;;10.48;2.53;;;;;;;9.34;100.00;99647.63;5079757;28;20808;-56
2022/09/27 00:11:25;;;;;;;9.80;2.50;;;;;;;9.34;100.00;99658.22;5080049;28;20040;-57
2022/09/27 00:13:50;;;;;;;9.82;2.33;;;;;;;9.35;100.00;99665.16;5071846;28;20044;-57
2022/09/27 00:16:15;;;;;;;9.35;2.50;;;;;;;9.33;100.00;99661.88;5073302;28;20602;-57
2022/09/27 00:18:41;;;;;;;5.30;2.10;;;;;;;9.32;100.00;99660.25;5066531;28;20506;-56
2022/09/27 00:21:09;;;;;;;5.97;2.20;;;;;;;9.33;100.00;99667.16;5082186;28;20047;-56
2022/09/27 00:23:35;;;;;;;7.93;2.30;;;;;;;9.32;100.00;99665.53;5071531;28;20173;-56
2022/09/27 00:26:00;;;;;;;7.63;2.20;;;;;;;9.31;100.00;99674.47;5070969;28;20112;-58
2022/09/27 00:28:26;;;;;;;5.57;1.98;;;;;;;9.33;100.00;99681.19;5073891;28;20052;-56
2022/09/27 00:30:52;;;;;;;6.20;2.10;;;;;;;9.33;100.00;99688.34;5080569;28;20031;-57
2022/09/27 00:33:17;;;;;;;11.70;2.50;;;;;;;9.35;100.00;99707.47;5073957;28;20055;-56
2022/09/27 00:35:43;;;;;;;13.02;2.90;;;;;;;9.31;100.00;99701.72;5068710;28;20061;-56
2022/09/27 00:38:09;;;;;;;8.65;2.28;;;;;;;9.36;100.00;99695.88;5075562;28;20039;-56
2022/09/27 00:40:34;;;;;;;8.07;2.20;;;;;;;9.27;100.00;99698.63;5073092;28;20029;-56
2022/09/27 00:42:59;;;;;;;8.50;2.00;;;;;;;9.28;100.00;99687.03;5070313;28;20582;-57
2022/09/27 00:45:25;;;;;;;8.15;2.05;;;;;;;9.24;100.00;99693.69;5069306;28;20392;-57
2022/09/27 00:48:04;;;;;;;8.30;2.10;;;;;;;9.25;100.00;99686.59;5076064;28;20032;-58
2022/09/27 00:50:33;;;;;;;6.47;2.10;;;;;;;9.23;100.00;99684.13;5074677;28;20058;-59
2022/09/27 00:53:14;;;;;;;9.60;2.45;;;;;;;9.23;100.00;99686.75;5076558;28;20377;-57
2022/09/27 00:55:47;;;;;;;7.30;1.90;;;;;;;9.24;100.00;99688.41;5067146;28;20089;-57
2022/09/27 00:58:16;;;;;;;7.03;2.00;;;;;;;9.26;100.00;99686.41;5069017;28;20472;-59
2022/09/27 01:00:44;;;;;;;8.63;2.03;;;;;;;9.19;100.00;99674.91;5086483;28;20085;-57
2022/09/27 01:03:14;;;;;;;9.30;2.03;;;;;;;9.21;100.00;99680.84;5076213;28;20514;-57
2022/09/27 01:05:40;;;;;;;5.63;1.75;;;;;;;9.22;100.00;99679.84;5070817;28;20123;-57
2022/09/27 01:08:05;;;;;;;6.57;1.92;;;;;;;9.23;100.00;99688.59;5078987;28;20111;-56
2022/09/27 01:10:39;;;;;;;6.72;1.77;;;;;;;9.23;100.00;99688.59;5075769;28;20441;-56
2022/09/27 01:13:18;;;;;;;5.45;1.60;;;;;;;9.20;100.00;99683.66;5069236;28;20040;-56
2022/09/27 01:16:00;;;;;;;3.47;1.70;;;;;;;9.19;100.00;99687.31;5082144;28;20082;-56
2022/09/27 01:18:37;;;;;;;5.53;1.70;;;;;;;9.18;100.00;99675.91;5082744;28;20032;-56
2022/09/27 01:21:21;;;;;;;6.85;1.90;;;;;;;9.20;100.00;99687.13;5079587;28;20036;-59
2022/09/27 01:24:05;;;;;;;4.32;1.63;;;;;;;9.18;100.00;99690.97;5072725;28;20037;-57
2022/09/27 01:26:43;;;;;;;5.30;1.50;;;;;;;9.16;100.00;99693.78;5066325;28;20032;-59
2022/09/27 01:29:15;;;;;;;5.82;1.60;;;;;;;9.13;100.00;99694.97;5073642;28;20028;-57
2022/09/27 01:32:09;;;;;;;6.95;1.95;;;;;;;9.15;100.00;99698.25;5086030;28;20043;-56
2022/09/27 01:34:58;;;;;;;5.47;1.40;;;;;;;9.11;100.00;99706.72;5069933;28;20074;-57
2022/09/27 01:37:38;;;;;;;6.78;1.70;;;;;;;9.06;100.00;99701.97;5071118;28;20543;-57
2022/09/27 01:40:16;;;;;;;5.18;1.58;;;;;;;9.10;100.00;99711.19;5071570;28;20395;-60
2022/09/27 01:43:09;;;;;;;3.90;1.30;;;;;;;9.08;100.00;99707.91;5079424;28;20055;-59
2022/09/27 01:45:42;;;;;;;7.65;1.40;;;;;;;9.06;100.00;99703.78;5058054;28;20114;-55
2022/09/27 01:48:20;;;;;;;8.50;1.60;;;;;;;9.04;100.00;99703.16;5067434;28;20053;-59
2022/09/27 01:50:57;;;;;;;6.47;1.63;;;;;;;8.95;100.00;99703.25;5079624;28;20494;-57
2022/09/27 01:53:30;;;;;;;5.95;1.60;;;;;;;8.96;100.00;99714.63;5071649;28;20391;-59
2022/09/27 01:55:56;;;;;;;4.90;1.60;;;;;;;8.95;100.00;99721.75;5074923;28;20111;-57
2022/09/27 01:58:29;;;;;;;11.05;1.60;;;;;;;8.90;100.00;99720.63;5075460;28;20151;-57
2022/09/27 02:00:55;;;;;;;;;;;;;;;9.04;100.00;99714.56;5077866;28;20102;-57
2022/09/27 02:03:30;;;;;;;6.85;1.55;;;;;;;8.90;100.00;99713.53;5066580;28;19942;-56
2022/09/27 02:06:04;;;;;;;5.57;1.40;;;;;;;8.87;100.00;99706.78;5073837;28;20094;-57
2022/09/27 02:08:56;;;;;;;3.40;1.40;;;;;;;8.90;100.00;99710.88;5069770;28;20060;-56
2022/09/27 02:11:21;;;;;;;10.50;1.73;;;;;;;8.82;100.00;99718.84;5074822;28;20147;-57
2022/09/27 02:14:04;;;;;;;5.47;1.60;;;;;;;8.80;100.00;99716.41;5065594;28;20521;-55
2022/09/27 02:16:53;;;;;;;8.60;1.58;;;;;;;8.89;100.00;99722.47;5065714;28;20032;-57
2022/09/27 02:19:44;;;;;;;5.68;1.40;;;;;;;8.78;100.00;99722.88;5065555;28;20024;-57
2022/09/27 02:22:32;;;;;;;4.80;1.48;;;;;;;8.74;100.00;99712.66;5068175;28;20041;-59
2022/09/27 02:25:09;;;;;;;4.63;1.48;;;;;;;8.74;100.00;99715.28;5068135;28;20044;-56
2022/09/27 02:27:50;;;;;;;6.63;1.50;;;;;;;8.71;100.00;99713.00;5078080;28;20036;-57
2022/09/27 02:30:16;;;;;;;6.72;1.52;;;;;;;8.70;100.00;99721.94;5081407;28;20028;-54
2022/09/27 02:32:42;;;;;;;7.32;1.60;;;;;;;8.69;100.00;99715.00;5061205;28;20042;-56
2022/09/27 02:35:19;;;;;;;6.93;1.58;;;;;;;8.69;100.00;99719.47;5076370;28;20039;-57
2022/09/27 02:37:46;;;;;;;5.20;1.63;;;;;;;8.66;100.00;99731.22;5072171;28;20047;-60
2022/09/27 02:40:12;;;;;;;8.93;1.70;;;;;;;8.64;100.00;99743.78;5073529;28;20371;-58
2022/09/27 02:42:39;;;;;;;5.00;1.67;;;;;;;8.64;100.00;99740.31;5075528;28;20028;-58
2022/09/27 02:45:05;;;;;;;7.63;1.77;;;;;;;8.59;100.00;99735.56;5072474;28;20395;-55
2022/09/27 02:47:57;;;;;;;7.82;1.88;;;;;;;8.55;100.00;99728.97;5073189;28;20062;-57
2022/09/27 02:50:54;;;;;;;7.35;1.63;;;;;;;8.54;100.00;99735.25;5080970;28;20414;-56
2022/09/27 02:53:24;;;;;;;8.68;1.63;;;;;;;8.46;100.00;99731.66;5066616;28;20161;-56
2022/09/27 02:56:15;;;;;;;3.92;1.50;;;;;;;8.51;100.00;99722.38;5079970;28;20040;-56
2022/09/27 02:58:53;;;;;;;8.48;1.70;;;;;;;8.42;100.00;99730.34;5074516;28;20361;-57
2022/09/27 03:01:31;;;;;;;7.25;1.60;;;;;;;8.42;100.00;99725.06;5076533;28;20032;-58
2022/09/27 03:04:14;;;;;;;7.45;1.63;;;;;;;8.46;100.00;99730.81;5074212;28;20491;-58
2022/09/27 03:06:43;;;;;;;6.20;1.60;;;;;;;8.39;100.00;99725.41;5080081;28;20056;-57
2022/09/27 03:09:28;;;;;;;8.88;1.90;;;;;;;8.40;100.00;99729.72;5067649;28;20033;-57
2022/09/27 03:11:53;;;;;;;9.45;1.90;;;;;;;8.37;100.00;99722.13;5066005;28;20461;-57
2022/09/27 03:14:19;;;;;;;9.43;2.10;;;;;;;8.37;100.00;99716.84;5073261;28;20159;-59
2022/09/27 03:16:44;;;;;;;5.18;1.73;;;;;;;8.33;100.00;99718.19;5073024;28;20479;-55
2022/09/27 03:19:10;;;;;;;10.13;1.80;;;;;;;8.33;100.00;99718.19;5072549;28;20058;-57
2022/09/27 03:21:36;;;;;;;5.68;1.80;;;;;;;8.31;100.00;99714.91;5083857;28;20091;-56
2022/09/27 03:24:01;;;;;;;5.88;1.70;;;;;;;8.31;100.00;99725.47;5072331;28;20089;-56
2022/09/27 03:26:26;;;;;;;9.07;1.80;;;;;;;8.32;100.00;99735.03;5071662;28;20040;-58
2022/09/27 03:28:52;;;;;;;6.28;1.88;;;;;;;8.30;100.00;99731.75;5082310;28;20032;-56
2022/09/27 03:31:17;;;;;;;8.65;1.98;;;;;;;8.33;100.00;99736.66;5084333;28;20035;-56
2022/09/27 03:33:42;;;;;;;8.85;2.03;;;;;;;8.31;100.00;99728.09;5078660;28;20858;-57
2022/09/27 03:36:08;;;;;;;6.22;1.77;;;;;;;8.31;100.00;99728.09;5066842;28;20040;-57
2022/09/27 03:38:33;;;;;;;7.20;1.88;;;;;;;8.32;100.00;99730.56;5078189;28;20039;-58
2022/09/27 03:40:58;;;;;;;8.98;2.03;;;;;;;8.33;100.00;99731.38;5081630;28;20379;-57
2022/09/27 03:43:24;;;;;;;7.50;1.60;;;;;;;8.34;100.00;99746.25;5082806;28;20036;-59
2022/09/27 03:45:49;;;;;;;8.95;1.80;;;;;;;8.31;100.00;99744.78;5078339;28;20376;-57
2022/09/27 03:48:15;;;;;;;8.82;1.90;;;;;;;8.32;100.00;99751.72;5069090;28;20054;-57
2022/09/27 03:50:40;;;;;;;9.80;2.03;;;;;;;8.37;100.00;99752.97;5086366;28;20024;-56
2022/09/27 03:53:05;;;;;;;10.75;2.25;;;;;;;8.36;100.00;99757.47;5106707;28;20032;-56
2022/09/27 03:55:31;;;;;;;9.07;2.03;;;;;;;8.41;100.00;99760.41;5078690;28;20084;-56
2022/09/27 03:57:56;;;;;;;7.40;1.80;;;;;;;8.38;100.00;99781.88;5077273;28;20036;-56
2022/09/27 04:00:23;;;;;;;6.20;1.95;;;;;;;8.40;100.00;99792.28;5074897;28;20051;-57
2022/09/27 04:02:52;;;;;;;10.07;2.00;;;;;;;8.38;100.00;99784.53;5073476;28;20040;-57
2022/09/27 04:05:18;;;;;;;6.20;1.95;;;;;;;8.41;100.00;99802.69;5071714;28;20487;-57
2022/09/27 04:07:47;;;;;;;7.15;1.80;;;;;;;8.44;100.00;99789.13;5079409;28;20024;-56
2022/09/27 04:10:12;;;;;;;7.05;1.80;;;;;;;8.36;100.00;99789.16;5075120;28;20036;-59
2022/09/27 04:12:39;;;;;;;9.38;1.75;;;;;;;8.37;100.00;99789.97;5079082;28;20028;-57
2022/09/27 04:15:06;;;;;;;6.82;1.70;;;;;;;8.38;100.00;99781.88;5068484;28;20055;-56
2022/09/27 04:17:32;;;;;;;7.32;1.60;;;;;;;8.36;100.00;99778.59;5079782;28;20032;-56
2022/09/27 04:19:57;;;;;;;5.35;1.35;;;;;;;8.33;100.00;99774.47;5066355;28;20039;-59
2022/09/27 04:22:22;;;;;;;3.75;1.48;;;;;;;8.32;100.00;99761.44;5077376;28;20032;-55
2022/09/27 04:24:48;;;;;;;7.90;1.80;;;;;;;8.28;100.00;99760.13;5074190;28;20097;-56
2022/09/27 04:27:13;;;;;;;3.08;1.45;;;;;;;8.26;100.00;99751.56;5069232;28;20021;-56
2022/09/27 04:29:41;;;;;;;4.97;1.42;;;;;;;8.27;100.00;99761.13;5070134;28;20024;-56
2022/09/27 04:32:07;;;;;;;4.63;1.65;;;;;;;8.25;100.00;99749.94;5075633;28;20482;-55
2022/09/27 04:37:16;;;;;;;3.63;1.30;;;;;;;8.24;100.00;99753.56;5073987;28;20043;-56
2022/09/27 04:39:41;;;;;;;7.00;1.48;;;;;;;8.22;100.00;99759.00;5073463;28;20439;-56
2022/09/27 04:42:06;;;;;;;4.93;1.77;;;;;;;8.19;100.00;99743.53;5079390;28;20040;-57
2022/09/27 04:44:32;;;;;;;7.55;1.65;;;;;;;8.18;100.00;99750.63;5076259;28;20032;-57
2022/09/27 04:46:57;;;;;;;6.20;1.80;;;;;;;8.14;100.00;99757.22;5069463;28;20048;-54
2022/09/27 04:49:22;;;;;;;4.72;1.60;;;;;;;8.17;100.00;99753.44;5075477;28;20127;-57
2022/09/27 04:51:47;;;;;;;5.45;1.50;;;;;;;8.11;100.00;99754.94;5088246;28;20082;-59
2022/09/27 04:54:13;;;;;;;4.47;1.50;;;;;;;8.14;100.00;99759.88;5065765;28;20044;-56
2022/09/27 04:56:38;;;;;;;3.72;1.58;;;;;;;8.11;100.00;99765.50;5072292;28;20035;-58
2022/09/27 04:59:03;;;;;;;10.10;1.60;;;;;;;8.13;100.00;99775.88;5070036;28;20059;-59
2022/09/27 05:01:29;;;;;;;6.05;2.10;;;;;;;8.11;100.00;99783.16;5079919;28;20035;-59
2022/09/27 05:03:54;;;;;;;5.93;1.30;;;;;;;8.08;100.00;99787.81;5076274;28;20032;-59
2022/09/27 05:06:19;;;;;;;6.13;1.83;;;;;;;8.08;100.00;99797.53;5071217;28;20455;-60
2022/09/27 05:08:45;;;;;;;4.57;1.27;;;;;;;8.05;100.00;99787.31;5074798;28;20028;-57
2022/09/27 05:11:10;;;;;;;4.53;1.33;;;;;;;8.09;100.00;99791.25;5075380;28;20125;-55
2022/09/27 05:13:35;;;;;;;4.03;1.30;;;;;;;8.10;100.00;99790.28;5072116;28;20028;-57
2022/09/27 05:16:02;;;;;;;5.47;1.40;;;;;;;8.07;100.00;99777.41;5072076;28;20119;-56
2022/09/27 05:18:28;;;;;;;4.68;1.38;;;;;;;8.07;100.00;99790.59;5066939;28;20044;-57
2022/09/27 05:20:55;;;;;;;4.97;1.52;;;;;;;8.05;100.00;99792.59;5075756;28;20028;-56
2022/09/27 05:23:21;;;;;;;5.90;1.40;;;;;;;8.06;100.00;99792.41;5067112;28;20120;-56
2022/09/27 05:25:46;;;;;;;2.60;1.35;;;;;;;8.04;100.00;99785.69;5067245;28;20115;-57
2022/09/27 05:28:11;;;;;;;3.50;1.42;;;;;;;8.01;100.00;99786.84;5073385;28;20059;-54
2022/09/27 05:30:37;;;;;;;5.07;1.50;;;;;;;8.03;100.00;99784.84;5070415;28;20036;-58
2022/09/27 05:33:02;;;;;;;5.60;1.70;;;;;;;8.02;100.00;99783.22;5068237;28;20576;-57
2022/09/27 05:35:27;;;;;;;5.90;1.80;;;;;;;8.04;100.00;99785.69;5064181;28;20047;-55
2022/09/27 05:37:55;;;;;;;5.82;1.63;;;;;;;8.04;100.00;99789.13;5070992;28;20032;-56
2022/09/27 05:40:24;;;;;;;8.50;1.73;;;;;;;8.02;100.00;99787.66;5078233;28;20067;-58
2022/09/27 05:42:53;;;;;;;4.28;1.50;;;;;;;8.07;100.00;99787.97;5076463;28;20028;-58
2022/09/27 05:45:21;;;;;;;4.00;1.80;;;;;;;8.08;100.00;99786.97;5065470;28;20374;-58
2022/09/27 05:47:55;;;;;;;5.50;1.52;;;;;;;8.01;100.00;99781.56;5068233;28;20155;-58
2022/09/27 05:50:21;;;;;;;3.65;1.55;;;;;;;8.10;100.00;99792.91;5057368;28;20445;-57
2022/09/27 05:52:47;;;;;;;4.32;1.50;;;;;;;8.05;100.00;99797.88;5071621;28;20033;-57
2022/09/27 05:55:13;;;;;;;2.47;1.50;;;;;;;8.06;100.00;99794.25;5070599;28;20081;-58
2022/09/27 05:57:38;;;;;;;4.47;1.67;;;;;;;8.07;100.00;99796.72;5075123;28;20479;-59
2022/09/27 06:00:04;;;;;;;5.50;1.60;;;;;;;8.10;100.00;99795.56;5058051;28;20024;-59
2022/09/27 06:02:29;;;;;;;4.80;1.55;;;;;;;8.11;100.00;99791.91;5063870;28;20060;-58
2022/09/27 06:04:55;;;;;;;5.22;1.67;;;;;;;8.11;100.00;99802.47;5058448;28;20078;-58
2022/09/27 06:07:20;;;;;;;5.68;1.63;;;;;;;8.10;100.00;99798.19;5059849;28;20101;-57
2022/09/27 06:09:46;;;;;;;5.93;1.58;;;;;;;8.10;100.00;99800.84;5062807;28;20068;-60
2022/09/27 06:12:11;;;;;;;2.25;1.38;;;;;;;8.07;100.00;99801.16;5069140;28;20137;-59
2022/09/27 06:14:37;;;;;;;3.90;1.40;;;;;;;8.03;100.00;99805.13;5068571;28;20115;-59
2022/09/27 06:17:03;;;;;;;5.15;1.63;;;;;;;8.02;100.00;99799.03;5062410;28;20358;-58
2022/09/27 06:19:28;;;;;;;3.13;1.35;;;;;;;8.03;100.00;99794.56;5064812;28;20032;-62
2022/09/27 06:21:54;;;;;;;2.58;1.50;;;;;;;8.02;100.00;99792.94;5067348;28;20055;-57
2022/09/27 06:24:19;;;;;;;2.22;1.70;;;;;;;7.97;100.00;99796.09;5062807;28;20032;-57
2022/09/27 06:26:45;;;;;;;5.18;1.60;;;;;;;7.99;100.00;99793.28;5065800;28;20040;-58
2022/09/27 06:29:10;;;;;;;5.35;1.80;;;;;;;7.92;100.00;99801.88;5067745;28;20036;-59
2022/09/27 06:31:35;;;;;;;5.55;1.67;;;;;;;7.94;100.00;99793.78;5065274;28;20033;-61
2022/09/27 06:34:01;;;;;;;2.47;1.73;;;;;;;7.93;100.00;99786.84;5067933;28;20032;-58
2022/09/27 06:36:26;;;;;;;3.45;1.77;;;;;;;7.94;100.00;99804.34;5061116;28;20028;-60
2022/09/27 06:38:51;;;;;;;3.95;1.75;;;;;;;7.96;100.00;99804.16;5062378;28;20558;-58
2022/09/27 06:41:17;;;;;;;4.13;2.10;;;;;;;7.92;100.00;99804.53;5063842;28;20027;-59
2022/09/27 06:43:42;;;;;;;5.95;2.30;;;;;;;7.90;100.00;99814.41;5063864;28;20089;-59
2022/09/27 06:46:07;;;;;;;3.53;2.10;;;;;;;7.89;100.00;99804.84;5065057;28;20036;-57
2022/09/27 06:48:36;;;;;;;3.88;2.30;;;;;;;7.91;100.00;99805.50;5064048;28;20033;-55
2022/09/27 06:51:02;;;;;;;3.78;2.40;;;;;;;7.89;100.00;99804.84;5072089;28;20476;-58
2022/09/27 06:53:28;;;;;;;4.57;2.35;;;;;;;7.89;100.00;99798.75;5071495;28;20078;-56
2022/09/27 06:55:58;;;;;;;4.68;2.30;;;;;;;7.88;100.00;99797.94;5066121;28;20165;-56
2022/09/27 07:01:07;;;;;;;5.93;2.60;;;;;;;7.99;100.00;99798.56;5074396;28;20051;-57
2022/09/27 07:03:34;;;;;;;4.88;2.50;;;;;;;7.96;100.00;99806.81;5064730;28;20468;-59
2022/09/27 07:06:05;;;;;;;5.70;2.55;;;;;;;7.96;100.00;99805.00;5063319;28;20032;-57
2022/09/27 07:08:30;;;;;;;4.32;2.50;;;;;;;7.99;100.00;99804.66;5066973;28;20047;-59
2022/09/27 07:11:01;;;;;;;7.70;2.92;;;;;;;8.01;100.00;99809.78;5068511;28;20028;-57
2022/09/27 07:13:30;;;;;;;3.75;2.70;;;;;;;7.98;100.00;99794.28;5069665;28;20111;-57
2022/09/27 07:15:55;;;;;;;5.95;2.70;;;;;;;8.05;100.00;99805.81;5065542;28;20033;-57
2022/09/27 07:18:20;;;;;;;4.00;2.72;;;;;;;8.06;100.00;99804.81;5061348;28;20490;-59
2022/09/27 07:20:46;;;;;;;3.35;2.45;;;;;;;8.12;100.00;99798.84;5056902;28;20059;-56
2022/09/27 07:23:13;;;;;;;3.60;2.65;;;;;;;8.12;100.00;99808.56;5072251;28;20025;-56
2022/09/27 07:25:38;;;;;;;5.32;3.20;;;;;;;8.13;100.00;99813.69;5068489;28;20024;-59
2022/09/27 07:28:09;;;;;;;6.55;2.70;;;;;;;8.17;100.00;99817.66;5070636;28;20391;-57
2022/09/27 07:30:36;;;;;;;5.55;3.00;;;;;;;8.18;100.00;99814.00;5069367;28;20612;-58
2022/09/27 07:33:03;;;;;;;4.10;2.90;;;;;;;8.20;100.00;99812.00;5068082;28;20056;-57
2022/09/27 07:35:29;;;;;;;5.68;3.25;;;;;;;8.20;100.00;99822.56;5068143;28;20094;-58
2022/09/27 07:37:55;;;;;;;5.63;3.10;;;;;;;8.24;100.00;99811.66;5070850;28;20069;-58
2022/09/27 07:40:21;;;;;;;6.28;3.50;;;;;;;8.25;100.00;99815.97;5080692;28;20028;-58
2022/09/27 07:42:47;;;;;;;5.10;3.35;;;;;;;8.28;100.00;99813.78;5075292;28;20034;-57
2022/09/27 07:45:12;;;;;;;5.20;3.63;;;;;;;8.26;100.00;99817.59;5075936;28;20020;-58
2022/09/27 07:47:39;;;;;;;6.30;3.65;;;;;;;8.28;100.00;99823.53;5077140;28;20044;-57
2022/09/27 07:50:06;;;;;;;5.60;3.80;;;;;;;8.29;100.00;99814.63;5069545;28;20024;-59
2022/09/27 07:52:42;;;;;;;7.18;4.10;;;;;;;8.32;100.00;99820.38;5073932;28;20035;-58
2022/09/27 07:55:09;;;;;;;6.03;4.05;;;;;;;8.31;100.00;99821.38;5075789;28;20028;-57
2022/09/27 07:57:36;;;;;;;6.57;4.07;;;;;;;8.31;100.00;99828.47;5070385;28;20040;-57
2022/09/27 08:00:07;;;;;;;10.88;4.57;;;;;;;8.33;100.00;99839.69;5076419;28;20035;-59
2022/09/27 08:02:32;;;;;;;6.82;4.63;;;;;;;8.33;100.00;99839.69;5080336;28;20086;-56
2022/09/27 08:04:58;;;;;;;8.15;5.10;;;;;;;8.34;100.00;99836.06;5065579;28;20067;-55
2022/09/27 08:07:24;;;;;;;6.78;4.72;;;;;;;8.33;100.00;99842.31;5072558;28;20096;-58
2022/09/27 08:09:50;;;;;;;8.10;5.07;;;;;;;8.35;100.00;99841.16;5063063;28;20491;-57
2022/09/27 08:12:15;;;;;;;9.15;5.40;;;;;;;8.38;100.00;99847.94;5076753;28;20451;-60
2022/09/27 08:14:41;;;;;;;9.32;5.63;;;;;;;8.38;100.00;99847.94;5064473;28;20035;-58
2022/09/27 08:17:09;;;;;;;8.63;5.40;;;;;;;8.41;100.00;99852.88;5080563;28;20040;-57
2022/09/27 08:19:35;;;;;;;11.30;5.75;;;;;;;8.42;100.00;99854.53;5072854;28;20101;-59
2022/09/27 08:22:00;;;;;;;9.82;6.00;;;;;;;8.45;100.00;99846.22;5094453;28;20487;-58
2022/09/27 08:24:25;;;;;;;11.20;6.40;;;;;;;8.48;100.00;99845.06;5062111;28;20032;-60
2022/09/27 08:26:50;;;;;;;11.50;6.72;;;;;;;8.50;100.00;99842.25;5062714;28;20384;-57
2022/09/27 08:29:16;;;;;;;10.68;7.28;;;;;;;8.53;100.00;99847.25;5077149;28;20168;-59
2022/09/27 08:31:41;;;;;;;13.07;8.05;;;;;;;8.50;100.00;99837.81;5071511;28;20044;-56
2022/09/27 08:34:06;;;;;;;11.60;8.38;;;;;;;8.54;100.00;99841.78;5064517;28;20040;-58
2022/09/27 08:36:34;;;;;;;13.82;8.38;;;;;;;8.59;100.00;99842.06;5070884;28;20028;-56
2022/09/27 08:39:00;;;;;;;13.13;8.45;;;;;;;8.55;100.00;99839.97;5077613;28;20120;-55
2022/09/27 08:41:43;;;;;;;11.80;8.52;;;;;;;8.59;100.00;99836.00;5076598;28;20036;-59
2022/09/27 08:44:11;;;;;;;13.60;9.50;;;;;;;8.60;100.00;99827.06;5075609;28;20125;-57
2022/09/27 08:46:52;;;;;;;15.45;10.00;;;;;;;8.64;100.00;99838.94;5081325;28;20483;-56
2022/09/27 08:49:25;;;;;;;13.85;10.07;;;;;;;8.66;100.00;99842.22;5081749;28;20031;-57
2022/09/27 08:51:52;;;;;;;;;;;;;;;8.78;100.00;99844.47;5063809;28;20056;-57
2022/09/27 08:54:31;;;;;;;13.63;10.27;;;;;;;8.73;100.00;99848.44;5064010;28;19924;-59
2022/09/27 08:57:09;;;;;;;13.75;10.65;;;;;;;8.77;100.00;99843.63;5076856;28;20484;-56
2022/09/27 08:59:39;;;;;;;15.82;10.88;;;;;;;8.79;100.00;99843.47;5071742;28;20038;-56
2022/09/27 09:02:16;;;;;;;14.32;10.30;;;;;;;8.80;100.00;99845.09;5073073;28;20089;-57
2022/09/27 09:04:42;;;;;;;15.35;10.75;;;;;;;8.84;100.00;99846.41;5064293;28;20048;-58
2022/09/27 09:07:40;;;;;;;15.63;10.75;;;;;;;8.90;100.00;99847.53;5075247;28;20032;-58
2022/09/27 09:13:35;;;;;;;15.73;11.13;;;;;;;8.89;100.00;99857.28;5059923;28;20115;-61
2022/09/27 09:16:18;;;;;;;16.70;10.50;;;;;;;8.90;100.00;99858.94;5068920;28;20391;-60
2022/09/27 09:19:14;;;;;;;15.38;10.30;;;;;;;8.96;100.00;99858.25;5071406;28;20078;-60
2022/09/27 09:22:17;;;;;;;16.58;10.88;;;;;;;8.90;100.00;99866.88;5074840;28;20047;-56
2022/09/27 09:25:09;;;;;;;19.42;12.10;;;;;;;8.90;100.00;99869.50;4982677;28;20532;-56
2022/09/27 09:27:57;;;;;;;19.85;11.75;;;;;;;8.94;100.00;99868.16;5065191;28;20546;-56
2022/09/27 09:30:29;;;;;;;18.48;12.63;;;;;;;8.95;100.00;99867.19;5061169;28;20067;-56
2022/09/27 09:33:13;;;;;;;20.58;13.20;;;;;;;9.00;100.00;99864.84;5071975;28;20040;-58
2022/09/27 09:35:41;;;;;;;20.38;13.80;;;;;;;8.96;100.00;99871.47;5064070;28;20036;-57
2022/09/27 09:38:16;;;;;;;21.20;15.05;;;;;;;8.95;100.00;99864.53;5060434;28;20123;-57
2022/09/27 09:40:51;;;;;;;19.98;14.55;;;;;;;8.99;100.00;99860.53;5066529;28;20034;-56
2022/09/27 09:43:22;;;;;;;22.92;15.65;;;;;;;8.97;100.00;99859.88;5062405;28;20491;-58
2022/09/27 09:45:53;;;;;;;23.02;16.00;;;;;;;8.99;100.00;99857.88;5064303;28;20046;-59
2022/09/27 09:48:38;;;;;;;21.45;15.30;;;;;;;9.02;100.00;99864.63;5063190;28;20052;-56
2022/09/27 09:51:07;;;;;;;20.83;14.38;;;;;;;8.97;100.00;99874.91;5086682;28;20043;-58
2022/09/27 09:53:40;;;;;;;18.70;13.18;;;;;;;8.98;100.00;99877.38;5073064;28;20100;-56
2022/09/27 09:56:09;;;;;;;;;;;;;;;9.11;100.00;99870.69;5073376;28;20067;-57
2022/09/27 09:58:54;;;;;;;18.42;11.88;;;;;;;9.12;100.00;99867.88;5071974;28;19927;-57
2022/09/27 10:01:27;;;;;;;13.63;9.07;;;;;;;9.01;100.00;99866.47;5072358;28;20041;-56
2022/09/27 10:03:55;;;;;;;11.20;8.23;;;;;;;8.95;100.00;99869.81;5069086;28;20024;-58
2022/09/27 10:06:21;;;;;;;10.68;7.28;;;;;;;8.94;100.00;99865.50;5063640;28;20604;-57
2022/09/27 10:08:47;;;;;;;12.20;6.85;;;;;;;8.96;100.00;99874.09;5072447;28;20051;-57
2022/09/27 10:11:35;;;;;;;5.93;3.83;;;;;;;8.96;100.00;99874.09;5076325;28;20027;-56
2022/09/27 10:14:01;;;;;;;5.93;3.10;;;;;;;8.85;100.00;99877.13;5073427;28;20131;-56
2022/09/27 10:16:28;;;;;;;6.18;3.20;;;;;;;8.83;100.00;99873.84;5072151;28;20531;-59
2022/09/27 10:18:59;;;;;;;7.72;3.30;;;;;;;8.82;100.00;99872.19;5070623;28;20035;-56
2022/09/27 10:21:28;;;;;;;4.30;2.33;;;;;;;8.80;100.00;99874.19;5062169;28;20051;-57
2022/09/27 10:24:14;;;;;;;4.03;2.60;;;;;;;8.73;100.00;99874.06;5072038;28;20393;-56
2022/09/27 10:26:42;;;;;;;2.58;2.33;;;;;;;8.73;100.00;99877.53;5078927;28;20078;-56
2022/09/27 10:29:32;;;;;;;2.92;2.17;;;;;;;8.74;100.00;99881.81;5072602;28;20031;-57
2022/09/27 10:31:58;;;;;;;3.00;1.83;;;;;;;8.58;100.00;99888.00;5079440;28;20114;-58
2022/09/27 10:34:32;;;;;;;2.83;1.80;;;;;;;8.64;100.00;99885.66;5070999;28;20032;-56
2022/09/27 10:37:12;;;;;;;5.05;1.77;;;;;;;8.55;100.00;99880.44;5076728;28;20044;-56
2022/09/27 10:39:40;;;;;;;2.08;1.70;;;;;;;8.56;100.00;99889.16;5073640;28;20032;-57
2022/09/27 10:42:20;;;;;;;1.63;1.25;;;;;;;8.66;100.00;99889.78;5086381;28;20440;-57
2022/09/27 10:44:45;;;;;;;2.75;1.15;;;;;;;8.50;99.78;99885.38;5075310;28;20033;-56
2022/09/27 10:47:21;;;;;;;2.58;1.30;;;;;;;8.53;100.00;99885.03;5075248;28;20058;-57
2022/09/27 10:49:47;;;;;;;2.80;1.30;;;;;;;8.59;100.00;99887.00;5085651;28;20125;-58
2022/09/27 10:52:18;;;;;;;4.07;1.70;;;;;;;8.63;100.00;99890.13;5095085;28;20056;-56
2022/09/27 10:54:59;;;;;;;1.77;1.55;;;;;;;8.71;100.00;99887.47;5086380;28;20050;-57
2022/09/27 10:57:27;;;;;;;2.25;1.60;;;;;;;8.66;100.00;99889.78;5071236;28;20032;-56
2022/09/27 10:59:56;;;;;;;1.92;1.58;;;;;;;8.69;100.00;99884.16;5076434;28;20025;-57
2022/09/27 11:02:36;;;;;;;2.97;1.73;;;;;;;8.72;100.00;99888.25;5079693;28;20055;-55
2022/09/27 11:05:14;;;;;;;3.10;1.60;;;;;;;8.75;100.00;99880.81;5076814;28;20078;-57
2022/09/27 11:07:52;;;;;;;4.95;2.15;;;;;;;8.82;100.00;99880.13;5074420;28;20483;-58
2022/09/27 11:10:30;;;;;;;3.60;2.00;;;;;;;8.82;100.00;99882.75;5076397;28;20036;-57
2022/09/27 11:13:17;;;;;;;3.08;1.60;;;;;;;8.83;100.00;99873.84;5074546;28;20036;-59
2022/09/27 11:16:02;;;;;;;4.47;1.30;;;;;;;8.82;100.00;99882.75;5071437;28;20036;-56
2022/09/27 11:18:39;;;;;;;3.70;1.48;;;;;;;8.87;100.00;99875.13;5079325;28;20040;-57
2022/09/27 11:21:41;;;;;;;2.47;1.23;;;;;;;8.94;100.00;99862.84;5078807;28;20210;-56
2022/09/27 11:24:21;;;;;;;3.42;1.50;;;;;;;8.98;100.00;99858.06;5074712;28;20032;-57
2022/09/27 11:27:04;;;;;;;2.80;1.20;;;;;;;9.04;100.00;99859.19;5065588;28;20139;-57
2022/09/27 11:29:30;;;;;;;;;;;;;;;9.22;100.00;99856.25;5065768;28;20125;-57
2022/09/27 11:32:18;;;;;;;2.08;1.10;;;;;;;9.29;99.71;99859.84;5074434;28;19949;-57
2022/09/27 11:34:55;;;;;;;2.15;1.27;;;;;;;9.34;99.14;99848.72;5066869;28;20050;-57
2022/09/27 11:37:53;;;;;;;4.45;1.35;;;;;;;9.45;99.84;99856.22;5068737;28;20123;-55
2022/09/27 11:40:21;;;;;;;2.53;1.40;;;;;;;9.51;98.92;99844.94;5043952;28;20051;-59
2022/09/27 11:42:50;;;;;;;3.00;1.40;;;;;;;9.63;100.00;99849.78;5069609;28;20089;-56
2022/09/27 11:45:43;;;;;;;4.70;1.50;;;;;;;9.68;100.00;99852.72;5063573;28;20074;-57
2022/09/27 11:48:27;;;;;;;3.30;1.40;;;;;;;9.73;99.85;99855.66;5064833;28;20045;-57
2022/09/27 11:51:05;;;;;;;1.80;1.10;;;;;;;9.78;99.42;99855.91;5070670;28;20066;-56
2022/09/27 11:53:36;;;;;;;3.78;1.30;;;;;;;9.86;98.44;99851.56;5065508;28;20051;-57
2022/09/27 11:56:27;;;;;;;5.90;1.50;;;;;;;9.88;98.44;99852.19;5069103;28;20107;-59
2022/09/27 11:59:04;;;;;;;2.78;1.40;;;;;;;9.94;99.86;99854.13;5063475;28;20131;-56